sensor_id;sensor_type;location;lat;lon;timestamp;P1;durP1;ratioP1;P2;durP2;ratioP2
19043;SDS011;9654;52.302;8.120;2022-09-09T00:02:23;3.40;;;2.30;;
19043;SDS011;9654;52.302;8.120;2022-09-09T00:04:58;4.10;;;2.13;;
19043;SDS011;9654;52.302;8.120;2022-09-09T00:07:28;5.00;;;2.20;;
19043;SDS011;9654;52.302;8.120;2022-09-09T00:10:16;6.13;;;2.40;;
19043;SDS011;9654;52.302;8.120;2022-09-09T00:12:51;5.77;;;2.53;;
19043;SDS011;9654;52.302;8.120;2022-09-09T00:15:25;9.00;;;3.07;;
19043;SDS011;9654;52.302;8.120;2022-09-09T00:17:56;5.13;;;2.53;;
19043;SDS011;9654;52.302;8.120;2022-09-09T00:20:28;7.20;;;2.83;;
19043;SDS011;9654;52.302;8.120;2022-09-09T00:23:00;5.60;;;2.60;;
19043;SDS011;9654;52.302;8.120;2022-09-09T00:25:35;7.13;;;2.57;;
19043;SDS011;9654;52.302;8.120;2022-09-09T00:28:09;7.07;;;3.20;;
19043;SDS011;9654;52.302;8.120;2022-09-09T00:30:42;5.07;;;2.73;;
19043;SDS011;9654;52.302;8.120;2022-09-09T00:33:13;3.50;;;2.73;;
19043;SDS011;9654;52.302;8.120;2022-09-09T00:35:44;11.07;;;2.90;;
19043;SDS011;9654;52.302;8.120;2022-09-09T00:38:14;5.40;;;2.60;;
19043;SDS011;9654;52.302;8.120;2022-09-09T00:40:48;5.93;;;3.00;;
19043;SDS011;9654;52.302;8.120;2022-09-09T00:43:25;8.67;;;2.97;;
19043;SDS011;9654;52.302;8.120;2022-09-09T00:46:08;6.73;;;3.07;;
19043;SDS011;9654;52.302;8.120;2022-09-09T00:48:53;5.93;;;2.40;;
19043;SDS011;9654;52.302;8.120;2022-09-09T00:51:29;6.23;;;2.47;;
19043;SDS011;9654;52.302;8.120;2022-09-09T00:54:08;6.33;;;2.27;;
19043;SDS011;9654;52.302;8.120;2022-09-09T00:56:53;6.23;;;2.13;;
19043;SDS011;9654;52.302;8.120;2022-09-09T00:59:32;6.43;;;3.03;;
19043;SDS011;9654;52.302;8.120;2022-09-09T01:02:10;5.73;;;2.47;;
19043;SDS011;9654;52.302;8.120;2022-09-09T01:04:41;10.73;;;2.70;;
19043;SDS011;9654;52.302;8.120;2022-09-09T01:07:11;6.07;;;2.47;;
19043;SDS011;9654;52.302;8.120;2022-09-09T01:09:44;7.40;;;2.80;;
19043;SDS011;9654;52.302;8.120;2022-09-09T01:12:23;5.93;;;2.77;;
19043;SDS011;9654;52.302;8.120;2022-09-09T01:14:52;3.37;;;2.70;;
19043;SDS011;9654;52.302;8.120;2022-09-09T01:17:28;3.90;;;2.27;;
19043;SDS011;9654;52.302;8.120;2022-09-09T01:20:02;5.43;;;2.60;;
19043;SDS011;9654;52.302;8.120;2022-09-09T01:22:35;3.37;;;2.40;;
19043;SDS011;9654;52.302;8.120;2022-09-09T01:27:59;4.80;;;2.60;;
19043;SDS011;9654;52.302;8.120;2022-09-09T01:30:29;3.90;;;2.77;;
19043;SDS011;9654;52.302;8.120;2022-09-09T01:32:58;5.73;;;2.77;;
19043;SDS011;9654;52.302;8.120;2022-09-09T01:35:32;5.63;;;3.20;;
19043;SDS011;9654;52.302;8.120;2022-09-09T01:38:05;6.77;;;2.57;;
19043;SDS011;9654;52.302;8.120;2022-09-09T01:40:32;5.33;;;3.30;;
19043;SDS011;9654;52.302;8.120;2022-09-09T01:43:00;4.80;;;3.00;;
19043;SDS011;9654;52.302;8.120;2022-09-09T01:45:28;9.83;;;3.37;;
19043;SDS011;9654;52.302;8.120;2022-09-09T01:47:56;3.07;;;2.67;;
19043;SDS011;9654;52.302;8.120;2022-09-09T01:50:24;4.47;;;2.57;;
19043;SDS011;9654;52.302;8.120;2022-09-09T01:52:52;7.10;;;2.80;;
19043;SDS011;9654;52.302;8.120;2022-09-09T01:55:24;4.53;;;2.50;;
19043;SDS011;9654;52.302;8.120;2022-09-09T01:57:56;2.90;;;2.40;;
19043;SDS011;9654;52.302;8.120;2022-09-09T02:00:37;6.53;;;2.33;;
19043;SDS011;9654;52.302;8.120;2022-09-09T02:03:11;2.97;;;2.10;;
19043;SDS011;9654;52.302;8.120;2022-09-09T02:05:47;4.17;;;2.20;;
19043;SDS011;9654;52.302;8.120;2022-09-09T02:08:18;3.43;;;2.10;;
19043;SDS011;9654;52.302;8.120;2022-09-09T02:10:50;3.50;;;1.97;;
19043;SDS011;9654;52.302;8.120;2022-09-09T02:13:24;4.67;;;2.10;;
19043;SDS011;9654;52.302;8.120;2022-09-09T02:15:52;4.83;;;2.17;;
19043;SDS011;9654;52.302;8.120;2022-09-09T02:18:23;3.80;;;1.80;;
19043;SDS011;9654;52.302;8.120;2022-09-09T02:20:53;2.60;;;2.03;;
19043;SDS011;9654;52.302;8.120;2022-09-09T02:23:21;3.90;;;2.10;;
19043;SDS011;9654;52.302;8.120;2022-09-09T02:25:48;4.40;;;3.07;;
19043;SDS011;9654;52.302;8.120;2022-09-09T02:28:18;2.47;;;1.80;;
19043;SDS011;9654;52.302;8.120;2022-09-09T02:30:50;4.03;;;2.03;;
19043;SDS011;9654;52.302;8.120;2022-09-09T02:33:20;7.33;;;2.07;;
19043;SDS011;9654;52.302;8.120;2022-09-09T02:35:51;3.70;;;2.03;;
19043;SDS011;9654;52.302;8.120;2022-09-09T02:38:21;2.67;;;1.70;;
19043;SDS011;9654;52.302;8.120;2022-09-09T02:40:53;3.50;;;1.47;;
19043;SDS011;9654;52.302;8.120;2022-09-09T02:43:21;1.83;;;1.27;;
19043;SDS011;9654;52.302;8.120;2022-09-09T02:45:51;3.23;;;1.23;;
19043;SDS011;9654;52.302;8.120;2022-09-09T02:48:29;4.90;;;1.50;;
19043;SDS011;9654;52.302;8.120;2022-09-09T02:51:04;3.90;;;1.60;;
19043;SDS011;9654;52.302;8.120;2022-09-09T02:53:38;2.80;;;1.70;;
19043;SDS011;9654;52.302;8.120;2022-09-09T02:56:11;6.70;;;1.60;;
19043;SDS011;9654;52.302;8.120;2022-09-09T02:58:43;3.43;;;1.73;;
19043;SDS011;9654;52.302;8.120;2022-09-09T03:01:12;3.17;;;2.07;;
19043;SDS011;9654;52.302;8.120;2022-09-09T03:03:39;6.67;;;2.10;;
19043;SDS011;9654;52.302;8.120;2022-09-09T03:06:06;3.63;;;1.90;;
19043;SDS011;9654;52.302;8.120;2022-09-09T03:08:33;4.97;;;2.17;;
19043;SDS011;9654;52.302;8.120;2022-09-09T03:11:00;5.80;;;2.20;;
19043;SDS011;9654;52.302;8.120;2022-09-09T03:13:27;3.43;;;1.70;;
19043;SDS011;9654;52.302;8.120;2022-09-09T03:15:54;4.20;;;1.93;;
19043;SDS011;9654;52.302;8.120;2022-09-09T03:18:22;2.97;;;2.00;;
19043;SDS011;9654;52.302;8.120;2022-09-09T03:20:49;3.83;;;1.83;;
19043;SDS011;9654;52.302;8.120;2022-09-09T03:23:16;5.30;;;1.70;;
19043;SDS011;9654;52.302;8.120;2022-09-09T03:25:46;3.07;;;1.60;;
19043;SDS011;9654;52.302;8.120;2022-09-09T03:28:13;2.00;;;1.80;;
19043;SDS011;9654;52.302;8.120;2022-09-09T03:30:40;3.10;;;1.70;;
19043;SDS011;9654;52.302;8.120;2022-09-09T03:33:07;2.43;;;1.47;;
19043;SDS011;9654;52.302;8.120;2022-09-09T03:35:35;3.03;;;1.70;;
19043;SDS011;9654;52.302;8.120;2022-09-09T03:38:02;4.50;;;1.90;;
19043;SDS011;9654;52.302;8.120;2022-09-09T03:40:29;2.63;;;1.80;;
19043;SDS011;9654;52.302;8.120;2022-09-09T03:42:56;2.63;;;1.70;;
19043;SDS011;9654;52.302;8.120;2022-09-09T03:45:22;4.20;;;1.43;;
19043;SDS011;9654;52.302;8.120;2022-09-09T03:47:49;3.53;;;1.90;;
19043;SDS011;9654;52.302;8.120;2022-09-09T03:50:16;4.43;;;1.70;;
19043;SDS011;9654;52.302;8.120;2022-09-09T03:52:44;5.57;;;3.70;;
19043;SDS011;9654;52.302;8.120;2022-09-09T03:55:11;4.30;;;3.90;;
19043;SDS011;9654;52.302;8.120;2022-09-09T03:57:38;4.60;;;4.07;;
19043;SDS011;9654;52.302;8.120;2022-09-09T04:00:06;4.80;;;4.00;;
19043;SDS011;9654;52.302;8.120;2022-09-09T04:02:34;3.80;;;3.50;;
19043;SDS011;9654;52.302;8.120;2022-09-09T04:05:01;3.90;;;3.00;;
19043;SDS011;9654;52.302;8.120;2022-09-09T04:07:28;5.63;;;3.00;;
19043;SDS011;9654;52.302;8.120;2022-09-09T04:09:56;5.40;;;2.57;;
19043;SDS011;9654;52.302;8.120;2022-09-09T04:12:23;6.97;;;2.80;;
19043;SDS011;9654;52.302;8.120;2022-09-09T04:14:49;3.93;;;2.77;;
19043;SDS011;9654;52.302;8.120;2022-09-09T04:17:16;3.27;;;2.50;;
19043;SDS011;9654;52.302;8.120;2022-09-09T04:19:43;4.37;;;2.40;;
19043;SDS011;9654;52.302;8.120;2022-09-09T04:22:10;4.77;;;2.53;;
19043;SDS011;9654;52.302;8.120;2022-09-09T04:24:36;5.17;;;3.50;;
19043;SDS011;9654;52.302;8.120;2022-09-09T04:29:42;3.20;;;2.97;;
19043;SDS011;9654;52.302;8.120;2022-09-09T04:32:09;4.97;;;3.10;;
19043;SDS011;9654;52.302;8.120;2022-09-09T04:34:36;5.90;;;3.67;;
19043;SDS011;9654;52.302;8.120;2022-09-09T04:37:03;5.97;;;3.50;;
19043;SDS011;9654;52.302;8.120;2022-09-09T04:39:30;5.20;;;3.77;;
19043;SDS011;9654;52.302;8.120;2022-09-09T04:41:57;7.03;;;3.77;;
19043;SDS011;9654;52.302;8.120;2022-09-09T04:44:23;6.40;;;5.00;;
19043;SDS011;9654;52.302;8.120;2022-09-09T04:46:51;7.73;;;4.97;;
19043;SDS011;9654;52.302;8.120;2022-09-09T04:49:18;8.03;;;4.40;;
19043;SDS011;9654;52.302;8.120;2022-09-09T04:51:45;5.80;;;4.40;;
19043;SDS011;9654;52.302;8.120;2022-09-09T04:54:12;4.80;;;4.30;;
19043;SDS011;9654;52.302;8.120;2022-09-09T04:56:39;6.07;;;4.13;;
19043;SDS011;9654;52.302;8.120;2022-09-09T04:59:06;6.30;;;4.53;;
19043;SDS011;9654;52.302;8.120;2022-09-09T05:01:33;8.70;;;4.43;;
19043;SDS011;9654;52.302;8.120;2022-09-09T05:04:01;7.43;;;4.27;;
19043;SDS011;9654;52.302;8.120;2022-09-09T05:06:28;5.87;;;4.20;;
19043;SDS011;9654;52.302;8.120;2022-09-09T05:08:56;4.83;;;4.23;;
19043;SDS011;9654;52.302;8.120;2022-09-09T05:11:24;7.90;;;4.57;;
19043;SDS011;9654;52.302;8.120;2022-09-09T05:13:52;7.17;;;3.97;;
19043;SDS011;9654;52.302;8.120;2022-09-09T05:16:20;6.13;;;3.97;;
19043;SDS011;9654;52.302;8.120;2022-09-09T05:18:47;8.60;;;4.60;;
19043;SDS011;9654;52.302;8.120;2022-09-09T05:21:17;6.50;;;4.00;;
19043;SDS011;9654;52.302;8.120;2022-09-09T05:23:45;9.23;;;5.40;;
19043;SDS011;9654;52.302;8.120;2022-09-09T05:26:13;9.50;;;4.80;;
19043;SDS011;9654;52.302;8.120;2022-09-09T05:28:41;12.80;;;4.57;;
19043;SDS011;9654;52.302;8.120;2022-09-09T05:31:09;7.43;;;4.53;;
19043;SDS011;9654;52.302;8.120;2022-09-09T05:33:37;6.93;;;3.87;;
19043;SDS011;9654;52.302;8.120;2022-09-09T05:36:06;6.60;;;4.00;;
19043;SDS011;9654;52.302;8.120;2022-09-09T05:38:37;7.80;;;4.07;;
19043;SDS011;9654;52.302;8.120;2022-09-09T05:41:04;8.03;;;3.90;;
19043;SDS011;9654;52.302;8.120;2022-09-09T05:43:32;6.90;;;4.17;;
19043;SDS011;9654;52.302;8.120;2022-09-09T05:46:00;6.77;;;3.43;;
19043;SDS011;9654;52.302;8.120;2022-09-09T05:48:29;5.87;;;3.50;;
19043;SDS011;9654;52.302;8.120;2022-09-09T05:50:57;5.10;;;3.73;;
19043;SDS011;9654;52.302;8.120;2022-09-09T05:53:24;6.90;;;3.40;;
19043;SDS011;9654;52.302;8.120;2022-09-09T05:55:58;9.50;;;3.40;;
19043;SDS011;9654;52.302;8.120;2022-09-09T05:58:28;10.10;;;4.17;;
19043;SDS011;9654;52.302;8.120;2022-09-09T06:01:00;4.10;;;3.20;;
19043;SDS011;9654;52.302;8.120;2022-09-09T06:03:27;6.10;;;3.43;;
19043;SDS011;9654;52.302;8.120;2022-09-09T06:05:58;9.10;;;3.13;;
19043;SDS011;9654;52.302;8.120;2022-09-09T06:08:25;5.20;;;3.00;;
19043;SDS011;9654;52.302;8.120;2022-09-09T06:10:52;4.63;;;3.10;;
19043;SDS011;9654;52.302;8.120;2022-09-09T06:13:20;4.93;;;3.27;;
19043;SDS011;9654;52.302;8.120;2022-09-09T06:15:50;9.20;;;3.87;;
19043;SDS011;9654;52.302;8.120;2022-09-09T06:18:17;6.90;;;2.80;;
19043;SDS011;9654;52.302;8.120;2022-09-09T06:20:52;6.23;;;3.37;;
19043;SDS011;9654;52.302;8.120;2022-09-09T06:23:20;2.87;;;2.60;;
19043;SDS011;9654;52.302;8.120;2022-09-09T06:25:47;6.20;;;2.40;;
19043;SDS011;9654;52.302;8.120;2022-09-09T06:28:14;7.60;;;2.77;;
19043;SDS011;9654;52.302;8.120;2022-09-09T06:30:42;8.40;;;2.53;;
19043;SDS011;9654;52.302;8.120;2022-09-09T06:33:09;6.70;;;2.40;;
19043;SDS011;9654;52.302;8.120;2022-09-09T06:35:36;6.60;;;2.90;;
19043;SDS011;9654;52.302;8.120;2022-09-09T06:38:03;6.77;;;2.43;;
19043;SDS011;9654;52.302;8.120;2022-09-09T06:40:30;7.10;;;2.70;;
19043;SDS011;9654;52.302;8.120;2022-09-09T06:42:59;4.07;;;2.40;;
19043;SDS011;9654;52.302;8.120;2022-09-09T06:45:26;5.13;;;2.00;;
19043;SDS011;9654;52.302;8.120;2022-09-09T06:47:55;4.60;;;2.40;;
19043;SDS011;9654;52.302;8.120;2022-09-09T06:50:22;9.13;;;2.60;;
19043;SDS011;9654;52.302;8.120;2022-09-09T06:52:49;3.60;;;2.03;;
19043;SDS011;9654;52.302;8.120;2022-09-09T06:55:16;5.37;;;2.20;;
19043;SDS011;9654;52.302;8.120;2022-09-09T06:57:44;5.73;;;2.30;;
19043;SDS011;9654;52.302;8.120;2022-09-09T07:00:11;4.63;;;2.40;;
19043;SDS011;9654;52.302;8.120;2022-09-09T07:02:39;6.20;;;2.30;;
19043;SDS011;9654;52.302;8.120;2022-09-09T07:05:07;5.47;;;2.53;;
19043;SDS011;9654;52.302;8.120;2022-09-09T07:07:35;5.27;;;2.20;;
19043;SDS011;9654;52.302;8.120;2022-09-09T07:10:02;5.10;;;2.60;;
19043;SDS011;9654;52.302;8.120;2022-09-09T07:12:30;4.50;;;2.20;;
19043;SDS011;9654;52.302;8.120;2022-09-09T07:14:57;6.43;;;2.20;;
19043;SDS011;9654;52.302;8.120;2022-09-09T07:17:23;6.03;;;2.40;;
19043;SDS011;9654;52.302;8.120;2022-09-09T07:19:50;2.90;;;2.10;;
19043;SDS011;9654;52.302;8.120;2022-09-09T07:22:18;7.00;;;2.40;;
19043;SDS011;9654;52.302;8.120;2022-09-09T07:24:45;5.90;;;2.10;;
19043;SDS011;9654;52.302;8.120;2022-09-09T07:27:14;6.20;;;2.17;;
19043;SDS011;9654;52.302;8.120;2022-09-09T07:29:41;6.80;;;2.20;;
19043;SDS011;9654;52.302;8.120;2022-09-09T07:32:08;6.10;;;2.20;;
19043;SDS011;9654;52.302;8.120;2022-09-09T07:34:34;6.20;;;2.40;;
19043;SDS011;9654;52.302;8.120;2022-09-09T07:37:01;9.77;;;2.70;;
19043;SDS011;9654;52.302;8.120;2022-09-09T07:39:29;8.43;;;2.90;;
19043;SDS011;9654;52.302;8.120;2022-09-09T07:41:56;8.00;;;2.17;;
19043;SDS011;9654;52.302;8.120;2022-09-09T07:44:24;9.73;;;2.50;;
19043;SDS011;9654;52.302;8.120;2022-09-09T07:46:51;6.80;;;1.93;;
19043;SDS011;9654;52.302;8.120;2022-09-09T07:49:18;4.03;;;1.90;;
19043;SDS011;9654;52.302;8.120;2022-09-09T07:51:46;3.97;;;2.13;;
19043;SDS011;9654;52.302;8.120;2022-09-09T07:54:15;6.60;;;2.20;;
19043;SDS011;9654;52.302;8.120;2022-09-09T07:56:46;9.83;;;2.63;;
19043;SDS011;9654;52.302;8.120;2022-09-09T07:59:14;5.67;;;2.00;;
19043;SDS011;9654;52.302;8.120;2022-09-09T08:01:42;8.70;;;2.43;;
19043;SDS011;9654;52.302;8.120;2022-09-09T08:04:11;8.70;;;3.20;;
19043;SDS011;9654;52.302;8.120;2022-09-09T08:06:42;6.17;;;2.50;;
19043;SDS011;9654;52.302;8.120;2022-09-09T08:09:11;6.83;;;2.33;;
19043;SDS011;9654;52.302;8.120;2022-09-09T08:11:39;8.07;;;2.10;;
19043;SDS011;9654;52.302;8.120;2022-09-09T08:14:08;6.80;;;2.10;;
19043;SDS011;9654;52.302;8.120;2022-09-09T08:16:36;5.60;;;2.10;;
19043;SDS011;9654;52.302;8.120;2022-09-09T08:19:05;4.97;;;1.97;;
19043;SDS011;9654;52.302;8.120;2022-09-09T08:21:33;7.90;;;1.97;;
19043;SDS011;9654;52.302;8.120;2022-09-09T08:24:02;14.70;;;3.20;;
19043;SDS011;9654;52.302;8.120;2022-09-09T08:26:30;7.30;;;2.43;;
19043;SDS011;9654;52.302;8.120;2022-09-09T08:28:59;5.80;;;2.10;;
19043;SDS011;9654;52.302;8.120;2022-09-09T08:31:29;6.23;;;2.00;;
19043;SDS011;9654;52.302;8.120;2022-09-09T08:33:58;6.73;;;2.20;;
19043;SDS011;9654;52.302;8.120;2022-09-09T08:36:26;5.83;;;2.07;;
19043;SDS011;9654;52.302;8.120;2022-09-09T08:38:54;14.10;;;3.27;;
19043;SDS011;9654;52.302;8.120;2022-09-09T08:41:29;8.63;;;2.40;;
19043;SDS011;9654;52.302;8.120;2022-09-09T08:44:06;6.30;;;1.83;;
19043;SDS011;9654;52.302;8.120;2022-09-09T08:46:41;7.23;;;2.47;;
19043;SDS011;9654;52.302;8.120;2022-09-09T08:49:19;3.60;;;1.50;;
19043;SDS011;9654;52.302;8.120;2022-09-09T08:52:03;10.87;;;2.13;;
19043;SDS011;9654;52.302;8.120;2022-09-09T08:54:38;7.43;;;2.50;;
19043;SDS011;9654;52.302;8.120;2022-09-09T08:57:05;6.90;;;1.90;;
19043;SDS011;9654;52.302;8.120;2022-09-09T08:59:40;7.13;;;1.97;;
19043;SDS011;9654;52.302;8.120;2022-09-09T09:02:12;7.03;;;2.30;;
19043;SDS011;9654;52.302;8.120;2022-09-09T09:04:48;6.67;;;2.10;;
19043;SDS011;9654;52.302;8.120;2022-09-09T09:07:24;6.17;;;1.80;;
19043;SDS011;9654;52.302;8.120;2022-09-09T09:10:00;7.87;;;2.00;;
19043;SDS011;9654;52.302;8.120;2022-09-09T09:12:32;11.30;;;3.03;;
19043;SDS011;9654;52.302;8.120;2022-09-09T09:15:05;7.80;;;2.07;;
19043;SDS011;9654;52.302;8.120;2022-09-09T09:17:42;9.20;;;2.27;;
19043;SDS011;9654;52.302;8.120;2022-09-09T09:20:11;10.63;;;2.10;;
19043;SDS011;9654;52.302;8.120;2022-09-09T09:22:42;11.50;;;2.33;;
19043;SDS011;9654;52.302;8.120;2022-09-09T09:25:15;6.93;;;2.33;;
19043;SDS011;9654;52.302;8.120;2022-09-09T09:27:44;13.57;;;3.57;;
19043;SDS011;9654;52.302;8.120;2022-09-09T09:30:19;8.80;;;3.97;;
19043;SDS011;9654;52.302;8.120;2022-09-09T09:32:51;7.73;;;3.90;;
19043;SDS011;9654;52.302;8.120;2022-09-09T09:35:20;9.67;;;3.50;;
19043;SDS011;9654;52.302;8.120;2022-09-09T09:37:46;9.40;;;3.50;;
19043;SDS011;9654;52.302;8.120;2022-09-09T09:40:14;5.97;;;2.80;;
19043;SDS011;9654;52.302;8.120;2022-09-09T09:42:49;12.20;;;3.33;;
19043;SDS011;9654;52.302;8.120;2022-09-09T09:45:20;8.40;;;2.37;;
19043;SDS011;9654;52.302;8.120;2022-09-09T09:47:59;7.37;;;2.40;;
19043;SDS011;9654;52.302;8.120;2022-09-09T09:50:27;3.10;;;2.00;;
19043;SDS011;9654;52.302;8.120;2022-09-09T09:52:55;8.27;;;1.90;;
19043;SDS011;9654;52.302;8.120;2022-09-09T09:55:23;6.93;;;2.20;;
19043;SDS011;9654;52.302;8.120;2022-09-09T09:57:52;7.03;;;1.80;;
19043;SDS011;9654;52.302;8.120;2022-09-09T10:00:20;6.57;;;2.27;;
19043;SDS011;9654;52.302;8.120;2022-09-09T10:02:48;8.77;;;3.00;;
19043;SDS011;9654;52.302;8.120;2022-09-09T10:05:19;5.30;;;2.80;;
19043;SDS011;9654;52.302;8.120;2022-09-09T10:07:59;10.53;;;3.00;;
19043;SDS011;9654;52.302;8.120;2022-09-09T10:10:34;7.10;;;3.30;;
19043;SDS011;9654;52.302;8.120;2022-09-09T10:13:11;7.13;;;3.37;;
19043;SDS011;9654;52.302;8.120;2022-09-09T10:15:45;5.33;;;2.90;;
19043;SDS011;9654;52.302;8.120;2022-09-09T10:18:25;7.10;;;3.17;;
19043;SDS011;9654;52.302;8.120;2022-09-09T10:21:06;8.27;;;3.30;;
19043;SDS011;9654;52.302;8.120;2022-09-09T10:23:49;6.67;;;2.87;;
19043;SDS011;9654;52.302;8.120;2022-09-09T10:26:28;6.93;;;3.07;;
19043;SDS011;9654;52.302;8.120;2022-09-09T10:29:15;4.43;;;2.70;;
19043;SDS011;9654;52.302;8.120;2022-09-09T10:31:52;4.83;;;2.90;;
19043;SDS011;9654;52.302;8.120;2022-09-09T10:34:35;3.97;;;2.70;;
19043;SDS011;9654;52.302;8.120;2022-09-09T10:37:25;6.47;;;3.10;;
19043;SDS011;9654;52.302;8.120;2022-09-09T10:40:02;3.97;;;2.70;;
19043;SDS011;9654;52.302;8.120;2022-09-09T10:42:40;7.10;;;3.10;;
19043;SDS011;9654;52.302;8.120;2022-09-09T10:45:13;8.50;;;3.07;;
19043;SDS011;9654;52.302;8.120;2022-09-09T10:50:40;5.40;;;2.27;;
19043;SDS011;9654;52.302;8.120;2022-09-09T10:53:21;8.77;;;2.97;;
19043;SDS011;9654;52.302;8.120;2022-09-09T10:55:56;8.97;;;2.70;;
19043;SDS011;9654;52.302;8.120;2022-09-09T10:58:28;6.97;;;2.70;;
19043;SDS011;9654;52.302;8.120;2022-09-09T11:01:02;6.80;;;2.60;;
19043;SDS011;9654;52.302;8.120;2022-09-09T11:03:37;7.90;;;2.43;;
19043;SDS011;9654;52.302;8.120;2022-09-09T11:06:07;7.17;;;2.33;;
19043;SDS011;9654;52.302;8.120;2022-09-09T11:08:42;5.43;;;2.37;;
19043;SDS011;9654;52.302;8.120;2022-09-09T11:11:09;5.37;;;2.03;;
19043;SDS011;9654;52.302;8.120;2022-09-09T11:13:42;8.43;;;1.80;;
19043;SDS011;9654;52.302;8.120;2022-09-09T11:16:16;6.23;;;2.00;;
19043;SDS011;9654;52.302;8.120;2022-09-09T11:18:48;6.87;;;2.07;;
19043;SDS011;9654;52.302;8.120;2022-09-09T11:21:17;6.30;;;2.37;;
19043;SDS011;9654;52.302;8.120;2022-09-09T11:23:50;7.87;;;2.07;;
19043;SDS011;9654;52.302;8.120;2022-09-09T11:26:23;5.93;;;1.93;;
19043;SDS011;9654;52.302;8.120;2022-09-09T11:28:57;5.67;;;1.77;;
19043;SDS011;9654;52.302;8.120;2022-09-09T11:31:38;8.70;;;1.93;;
19043;SDS011;9654;52.302;8.120;2022-09-09T11:34:18;7.07;;;2.23;;
19043;SDS011;9654;52.302;8.120;2022-09-09T11:40:15;4.83;;;1.83;;
19043;SDS011;9654;52.302;8.120;2022-09-09T11:42:45;4.67;;;2.00;;
19043;SDS011;9654;52.302;8.120;2022-09-09T11:45:21;3.77;;;2.50;;
19043;SDS011;9654;52.302;8.120;2022-09-09T11:47:54;5.90;;;2.07;;
19043;SDS011;9654;52.302;8.120;2022-09-09T11:50:29;6.93;;;2.67;;
19043;SDS011;9654;52.302;8.120;2022-09-09T11:53:18;9.77;;;2.27;;
19043;SDS011;9654;52.302;8.120;2022-09-09T11:56:00;3.07;;;1.60;;
19043;SDS011;9654;52.302;8.120;2022-09-09T11:58:34;3.07;;;2.20;;
19043;SDS011;9654;52.302;8.120;2022-09-09T12:04:04;8.73;;;2.70;;
19043;SDS011;9654;52.302;8.120;2022-09-09T12:06:44;5.03;;;1.83;;
19043;SDS011;9654;52.302;8.120;2022-09-09T12:09:17;4.10;;;2.27;;
19043;SDS011;9654;52.302;8.120;2022-09-09T12:11:50;4.87;;;2.20;;
19043;SDS011;9654;52.302;8.120;2022-09-09T12:14:19;2.47;;;1.60;;
19043;SDS011;9654;52.302;8.120;2022-09-09T12:16:47;3.40;;;1.90;;
19043;SDS011;9654;52.302;8.120;2022-09-09T12:19:15;3.60;;;2.00;;
19043;SDS011;9654;52.302;8.120;2022-09-09T12:21:45;4.03;;;1.80;;
19043;SDS011;9654;52.302;8.120;2022-09-09T12:24:20;4.27;;;1.93;;
19043;SDS011;9654;52.302;8.120;2022-09-09T12:26:58;2.43;;;1.70;;
19043;SDS011;9654;52.302;8.120;2022-09-09T12:29:29;6.47;;;2.20;;
19043;SDS011;9654;52.302;8.120;2022-09-09T12:32:06;5.30;;;2.10;;
19043;SDS011;9654;52.302;8.120;2022-09-09T12:34:38;4.97;;;2.83;;
19043;SDS011;9654;52.302;8.120;2022-09-09T12:37:06;4.90;;;2.20;;
19043;SDS011;9654;52.302;8.120;2022-09-09T12:39:43;4.70;;;2.20;;
19043;SDS011;9654;52.302;8.120;2022-09-09T12:42:18;4.13;;;2.50;;
19043;SDS011;9654;52.302;8.120;2022-09-09T12:44:53;7.03;;;2.87;;
19043;SDS011;9654;52.302;8.120;2022-09-09T12:47:22;4.30;;;2.50;;
19043;SDS011;9654;52.302;8.120;2022-09-09T12:49:53;8.67;;;2.50;;
19043;SDS011;9654;52.302;8.120;2022-09-09T12:52:23;2.73;;;2.33;;
19043;SDS011;9654;52.302;8.120;2022-09-09T12:54:55;4.93;;;2.80;;
19043;SDS011;9654;52.302;8.120;2022-09-09T12:57:24;5.80;;;2.73;;
19043;SDS011;9654;52.302;8.120;2022-09-09T12:59:52;11.97;;;3.87;;
19043;SDS011;9654;52.302;8.120;2022-09-09T13:02:36;3.83;;;2.60;;
19043;SDS011;9654;52.302;8.120;2022-09-09T13:05:13;6.03;;;2.30;;
19043;SDS011;9654;52.302;8.120;2022-09-09T13:07:42;7.40;;;2.10;;
19043;SDS011;9654;52.302;8.120;2022-09-09T13:10:10;4.00;;;1.93;;
19043;SDS011;9654;52.302;8.120;2022-09-09T13:12:39;2.77;;;1.60;;
19043;SDS011;9654;52.302;8.120;2022-09-09T13:15:14;3.23;;;2.00;;
19043;SDS011;9654;52.302;8.120;2022-09-09T13:17:49;6.77;;;1.93;;
19043;SDS011;9654;52.302;8.120;2022-09-09T13:20:18;4.33;;;2.03;;
19043;SDS011;9654;52.302;8.120;2022-09-09T13:22:46;2.60;;;1.70;;
19043;SDS011;9654;52.302;8.120;2022-09-09T13:25:18;5.20;;;1.87;;
19043;SDS011;9654;52.302;8.120;2022-09-09T13:27:55;3.90;;;2.38;;
19043;SDS011;9654;52.302;8.120;2022-09-09T13:30:25;5.93;;;2.40;;
19043;SDS011;9654;52.302;8.120;2022-09-09T13:33:03;6.78;;;2.67;;
19043;SDS011;9654;52.302;8.120;2022-09-09T13:35:49;3.43;;;1.90;;
19043;SDS011;9654;52.302;8.120;2022-09-09T13:38:18;3.27;;;1.93;;
19043;SDS011;9654;52.302;8.120;2022-09-09T13:40:54;7.80;;;2.27;;
19043;SDS011;9654;52.302;8.120;2022-09-09T13:43:25;4.13;;;2.43;;
19043;SDS011;9654;52.302;8.120;2022-09-09T13:45:54;4.37;;;2.63;;
19043;SDS011;9654;52.302;8.120;2022-09-09T13:48:23;4.13;;;2.30;;
19043;SDS011;9654;52.302;8.120;2022-09-09T13:50:57;2.83;;;2.23;;
19043;SDS011;9654;52.302;8.120;2022-09-09T13:53:26;6.57;;;2.30;;
19043;SDS011;9654;52.302;8.120;2022-09-09T13:55:53;5.27;;;2.47;;
19043;SDS011;9654;52.302;8.120;2022-09-09T13:58:22;4.20;;;1.83;;
19043;SDS011;9654;52.302;8.120;2022-09-09T14:00:51;3.83;;;1.97;;
19043;SDS011;9654;52.302;8.120;2022-09-09T14:03:18;5.90;;;2.00;;
19043;SDS011;9654;52.302;8.120;2022-09-09T14:05:45;2.43;;;1.70;;
19043;SDS011;9654;52.302;8.120;2022-09-09T14:08:16;4.37;;;1.80;;
19043;SDS011;9654;52.302;8.120;2022-09-09T14:10:50;3.13;;;2.03;;
19043;SDS011;9654;52.302;8.120;2022-09-09T14:13:17;6.60;;;1.83;;
19043;SDS011;9654;52.302;8.120;2022-09-09T14:15:47;5.70;;;2.50;;
19043;SDS011;9654;52.302;8.120;2022-09-09T14:18:16;5.53;;;2.10;;
19043;SDS011;9654;52.302;8.120;2022-09-09T14:20:43;5.40;;;1.63;;
19043;SDS011;9654;52.302;8.120;2022-09-09T14:23:11;2.17;;;1.20;;
19043;SDS011;9654;52.302;8.120;2022-09-09T14:25:41;4.07;;;1.53;;
19043;SDS011;9654;52.302;8.120;2022-09-09T14:28:09;2.87;;;1.40;;
19043;SDS011;9654;52.302;8.120;2022-09-09T14:30:37;5.80;;;1.80;;
19043;SDS011;9654;52.302;8.120;2022-09-09T14:33:04;3.00;;;1.00;;
19043;SDS011;9654;52.302;8.120;2022-09-09T14:35:32;4.63;;;1.30;;
19043;SDS011;9654;52.302;8.120;2022-09-09T14:37:59;2.03;;;1.23;;
19043;SDS011;9654;52.302;8.120;2022-09-09T14:40:27;3.43;;;1.37;;
19043;SDS011;9654;52.302;8.120;2022-09-09T14:42:54;6.07;;;1.53;;
19043;SDS011;9654;52.302;8.120;2022-09-09T14:45:21;4.40;;;1.53;;
19043;SDS011;9654;52.302;8.120;2022-09-09T14:47:49;4.83;;;2.03;;
19043;SDS011;9654;52.302;8.120;2022-09-09T14:50:17;4.30;;;2.10;;
19043;SDS011;9654;52.302;8.120;2022-09-09T14:52:45;5.13;;;2.10;;
19043;SDS011;9654;52.302;8.120;2022-09-09T14:55:12;3.07;;;2.40;;
19043;SDS011;9654;52.302;8.120;2022-09-09T14:57:40;4.30;;;2.33;;
19043;SDS011;9654;52.302;8.120;2022-09-09T15:00:07;3.20;;;2.20;;
19043;SDS011;9654;52.302;8.120;2022-09-09T15:02:36;2.27;;;2.07;;
19043;SDS011;9654;52.302;8.120;2022-09-09T15:05:03;5.93;;;2.57;;
19043;SDS011;9654;52.302;8.120;2022-09-09T15:07:30;3.00;;;2.20;;
19043;SDS011;9654;52.302;8.120;2022-09-09T15:09:58;2.87;;;2.00;;
19043;SDS011;9654;52.302;8.120;2022-09-09T15:12:25;2.87;;;2.60;;
19043;SDS011;9654;52.302;8.120;2022-09-09T15:14:53;3.40;;;2.47;;
19043;SDS011;9654;52.302;8.120;2022-09-09T15:17:20;3.60;;;2.73;;
19043;SDS011;9654;52.302;8.120;2022-09-09T15:19:49;8.30;;;2.70;;
19043;SDS011;9654;52.302;8.120;2022-09-09T15:22:16;5.57;;;2.80;;
19043;SDS011;9654;52.302;8.120;2022-09-09T15:24:44;5.07;;;2.90;;
19043;SDS011;9654;52.302;8.120;2022-09-09T15:27:12;6.17;;;2.27;;
19043;SDS011;9654;52.302;8.120;2022-09-09T15:29:39;4.93;;;1.70;;
19043;SDS011;9654;52.302;8.120;2022-09-09T15:32:06;2.60;;;1.60;;
19043;SDS011;9654;52.302;8.120;2022-09-09T15:34:33;2.93;;;1.70;;
19043;SDS011;9654;52.302;8.120;2022-09-09T15:37:00;3.87;;;2.63;;